createdAt,value
2023-04-14T00:00:08.930Z,98113.09
2023-04-14T00:02:45.223Z,98104.66
2023-04-14T00:05:15.781Z,98106.22
2023-04-14T00:07:44.609Z,98099.81
2023-04-14T00:10:15.701Z,98100.19
2023-04-14T00:12:44.444Z,98094.84
2023-04-14T00:15:13.796Z,98098.84
2023-04-14T00:17:42.530Z,98093.41
2023-04-14T00:20:12.006Z,98102.88
2023-04-14T00:22:42.158Z,98103.66
2023-04-14T00:25:11.448Z,98100.44
2023-04-14T00:27:40.309Z,98099.88
2023-04-14T00:30:11.445Z,98102.88
2023-04-14T00:32:41.219Z,98099.63
2023-04-14T00:35:10.577Z,98097.03
2023-04-14T00:37:39.353Z,98101.31
2023-04-14T00:40:12.036Z,98101.81
2023-04-14T00:42:45.228Z,98099.06
2023-04-14T00:45:15.616Z,98101.00
2023-04-14T00:47:49.355Z,98093.53
2023-04-14T00:50:20.889Z,98102.13
2023-04-14T00:52:59.307Z,98098.41
2023-04-14T00:55:31.044Z,98103.75
2023-04-14T00:58:00.102Z,98102.69
2023-04-14T01:00:29.048Z,98106.16
2023-04-14T01:03:01.626Z,98105.34
2023-04-14T01:05:30.725Z,98105.34
2023-04-14T01:07:59.846Z,98102.69
2023-04-14T01:10:42.144Z,98102.47
2023-04-14T01:13:33.828Z,98111.06
2023-04-14T01:16:19.234Z,98110.00
2023-04-14T01:19:00.319Z,98107.06
2023-04-14T01:21:42.869Z,98115.41
2023-04-14T01:24:48.903Z,98113.53
2023-04-14T01:27:42.060Z,98118.41
2023-04-14T01:30:34.370Z,98115.16
2023-04-14T01:33:09.344Z,98113.81
2023-04-14T01:35:43.668Z,98114.09
2023-04-14T01:38:22.122Z,98117.56
2023-04-14T01:40:57.491Z,98121.00
2023-04-14T01:43:33.389Z,98123.66
2023-04-14T01:46:13.881Z,98124.72
2023-04-14T01:48:45.787Z,98129.56
2023-04-14T01:51:19.917Z,98133.84
2023-04-14T01:53:52.133Z,98121.22
2023-04-14T01:56:22.956Z,98115.50
2023-04-14T01:58:54.547Z,98114.31
2023-04-14T02:01:24.000Z,98110.56
2023-04-14T02:03:54.751Z,98109.69
2023-04-14T02:06:27.617Z,98110.06
2023-04-14T02:08:58.076Z,98104.00
2023-04-14T02:11:30.742Z,98105.00
2023-04-14T02:14:03.344Z,98099.16
2023-04-14T02:16:35.482Z,98108.03
2023-04-14T02:19:06.936Z,98092.34
2023-04-14T02:21:37.147Z,98097.69
2023-04-14T02:24:06.617Z,98088.63
2023-04-14T02:26:41.694Z,98099.00
2023-04-14T02:29:16.540Z,98091.56
2023-04-14T02:32:01.927Z,98099.81
2023-04-14T02:34:39.537Z,98091.34
2023-04-14T02:37:19.188Z,98085.66
2023-04-14T02:40:02.153Z,98083.63
2023-04-14T02:42:35.949Z,98087.44
2023-04-14T02:45:10.539Z,98087.75
2023-04-14T02:47:45.891Z,98089.34
2023-04-14T02:50:20.651Z,98092.69
2023-04-14T02:53:01.892Z,98090.59
2023-04-14T02:55:37.723Z,98085.50
2023-04-14T02:58:07.618Z,98081.53
2023-04-14T03:00:41.919Z,98084.78
2023-04-14T03:03:13.368Z,98081.03
2023-04-14T03:05:46.530Z,98091.38
2023-04-14T03:08:18.356Z,98079.44
2023-04-14T03:10:53.102Z,98086.38
2023-04-14T03:13:28.684Z,98086.06
2023-04-14T03:15:59.742Z,98088.66
2023-04-14T03:18:33.545Z,98082.75
2023-04-14T03:21:05.935Z,98082.34
2023-04-14T03:23:37.732Z,98089.16
2023-04-14T03:26:18.550Z,98095.63
2023-04-14T03:28:50.841Z,98102.06
2023-04-14T03:31:22.442Z,98094.16
2023-04-14T03:33:58.590Z,98100.44
2023-04-14T03:36:36.770Z,98101.44
2023-04-14T03:39:09.285Z,98096.25
2023-04-14T03:41:51.736Z,98105.50
2023-04-14T03:44:23.842Z,98109.34
2023-04-14T03:46:54.671Z,98102.25
2023-04-14T03:49:27.093Z,98100.97
2023-04-14T03:57:17.645Z,98105.97
2023-04-14T03:59:50.947Z,98106.38
2023-04-14T04:02:24.736Z,98114.22
2023-04-14T04:04:55.902Z,98104.91
2023-04-14T04:07:28.612Z,98112.44
2023-04-14T04:09:59.139Z,98123.75
2023-04-14T04:12:31.070Z,98110.66
2023-04-14T04:15:00.744Z,98108.06
2023-04-14T04:17:33.930Z,98095.28
2023-04-14T04:20:26.362Z,98093.16
2023-04-14T04:23:02.926Z,98084.94
2023-04-14T04:25:33.376Z,98083.75
2023-04-14T04:28:11.278Z,98069.09
2023-04-14T04:30:41.927Z,98070.22
2023-04-14T04:34:28.968Z,98063.59
2023-04-14T04:38:38.554Z,98068.22
2023-04-14T04:41:22.188Z,98071.53
2023-04-14T04:43:54.119Z,98076.22
2023-04-14T04:46:45.461Z,98067.72
2023-04-14T04:49:14.948Z,98070.72
2023-04-14T04:51:44.478Z,98083.56
2023-04-14T04:54:13.583Z,98077.03
2023-04-14T04:56:42.369Z,98088.34
2023-04-14T04:59:12.618Z,98079.59
2023-04-14T05:01:43.498Z,98084.34
2023-04-14T05:04:12.342Z,98096.50
2023-04-14T05:06:41.101Z,98103.53
2023-04-14T05:09:09.998Z,98104.34
2023-04-14T05:11:38.671Z,98110.34
2023-04-14T05:14:07.325Z,98100.06
2023-04-14T05:16:38.714Z,98108.31
2023-04-14T05:19:07.705Z,98099.91
2023-04-14T05:21:36.600Z,98107.28
2023-04-14T05:24:06.079Z,98110.81
2023-04-14T05:26:57.833Z,98118.91
2023-04-14T05:29:23.662Z,98112.50
2023-04-14T05:32:07.602Z,98117.28
2023-04-14T05:34:36.785Z,98124.00
2023-04-14T05:37:06.144Z,98124.56
2023-04-14T05:39:34.896Z,98118.91
2023-04-14T05:42:03.582Z,98130.72
2023-04-14T05:44:32.367Z,98135.34
2023-04-14T05:47:01.726Z,98128.69
2023-04-14T05:49:32.586Z,98121.56
2023-04-14T05:52:01.289Z,98115.16
2023-04-14T05:54:30.177Z,98118.25
2023-04-14T05:56:59.968Z,98118.09
2023-04-14T05:59:28.850Z,98115.97
2023-04-14T06:01:57.704Z,98108.03
2023-04-14T06:04:26.655Z,98104.63
2023-04-14T06:06:58.668Z,98102.69
2023-04-14T06:09:27.431Z,98101.06
2023-04-14T06:11:56.752Z,98093.13
2023-04-14T06:14:25.689Z,98097.97
2023-04-14T06:16:54.527Z,98089.75
2023-04-14T06:19:24.115Z,98089.78
2023-04-14T06:21:53.939Z,98088.50
2023-04-14T06:24:24.109Z,98088.56
2023-04-14T06:26:53.197Z,98082.72
2023-04-14T06:29:21.898Z,98088.63
2023-04-14T06:31:54.953Z,98085.97
2023-04-14T06:34:23.882Z,98089.19
2023-04-14T06:36:53.126Z,98081.72
2023-04-14T06:41:00.840Z,98083.91
2023-04-14T06:43:29.659Z,98084.97
2023-04-14T06:45:59.699Z,98086.81
2023-04-14T06:48:37.010Z,98085.78
2023-04-14T06:51:07.752Z,98083.34
2023-04-14T06:53:36.601Z,98083.22
2023-04-14T06:56:08.308Z,98078.97
2023-04-14T06:58:37.274Z,98077.81
2023-04-14T07:01:06.247Z,98069.00
2023-04-14T07:06:17.354Z,98075.63
2023-04-14T07:08:51.316Z,98075.16
2023-04-14T07:11:21.609Z,98065.91
2023-04-14T07:13:51.137Z,98076.59
2023-04-14T07:16:51.159Z,98066.53
2023-04-14T07:19:20.524Z,98068.53
2023-04-14T07:21:49.904Z,98068.22
2023-04-14T07:24:25.084Z,98069.50
2023-04-14T07:26:56.262Z,98070.72
2023-04-14T07:29:27.278Z,98062.16
2023-04-14T07:31:56.789Z,98068.53
2023-04-14T07:34:25.679Z,98062.19
2023-04-14T07:37:46.143Z,98068.81
2023-04-14T07:40:15.257Z,98078.75
2023-04-14T07:42:45.841Z,98080.91
2023-04-14T07:45:14.846Z,98085.78
2023-04-14T07:47:43.853Z,98090.72
2023-04-14T07:50:32.064Z,98100.38
2023-04-14T07:53:01.052Z,98101.94
2023-04-14T07:55:29.847Z,98101.84
2023-04-14T07:58:02.148Z,98100.09
2023-04-14T08:00:31.941Z,98098.47
2023-04-14T08:03:01.599Z,98086.41
2023-04-14T08:05:52.676Z,98078.41
2023-04-14T08:09:01.736Z,98087.00
2023-04-14T08:11:31.505Z,98084.97
2023-04-14T08:14:02.149Z,98085.38
2023-04-14T08:16:31.420Z,98084.31
2023-04-14T08:19:00.762Z,98076.88
2023-04-14T08:21:29.869Z,98078.91
2023-04-14T08:23:58.638Z,98080.03
2023-04-14T08:26:28.664Z,98075.81
2023-04-14T08:29:02.963Z,98082.84
2023-04-14T08:31:55.859Z,98082.63
2023-04-14T08:34:29.015Z,98086.91
2023-04-14T08:37:00.569Z,98082.75
2023-04-14T08:39:38.635Z,98087.22
2023-04-14T08:42:10.645Z,98090.41
2023-04-14T08:44:41.406Z,98099.81
2023-04-14T08:48:06.051Z,98096.63
2023-04-14T08:50:42.559Z,98087.00
2023-04-14T08:53:12.015Z,98086.38
2023-04-14T08:55:42.667Z,98082.00
2023-04-14T08:58:12.539Z,98081.69
2023-04-14T09:01:05.361Z,98069.22
2023-04-14T09:04:55.519Z,98067.94
2023-04-14T09:07:27.720Z,98060.66
2023-04-14T09:10:50.393Z,98069.72
2023-04-14T09:14:09.294Z,98059.53
2023-04-14T09:16:48.904Z,98055.16
2023-04-14T09:19:18.333Z,98061.66
2023-04-14T09:22:16.124Z,98060.44
2023-04-14T09:24:45.857Z,98059.44
2023-04-14T09:28:05.613Z,98064.56
2023-04-14T09:30:35.409Z,98071.81
2023-04-14T09:33:08.688Z,98078.13
2023-04-14T09:35:48.665Z,98078.78
2023-04-14T09:38:42.993Z,98081.06
2023-04-14T09:41:18.434Z,98082.66
2023-04-14T09:43:47.427Z,98092.38
2023-04-14T09:46:58.120Z,98085.75
2023-04-14T09:49:31.320Z,98097.41
2023-04-14T09:52:08.296Z,98094.47
2023-04-14T09:55:11.526Z,98079.44
2023-04-14T09:57:45.101Z,98081.63
2023-04-14T10:00:22.723Z,98086.31
2023-04-14T10:02:56.522Z,98082.03
2023-04-14T10:05:31.055Z,98077.81
2023-04-14T10:08:05.428Z,98075.25
2023-04-14T10:10:40.139Z,98060.50
2023-04-14T10:13:19.523Z,98061.31
2023-04-14T10:15:52.268Z,98063.97
2023-04-14T10:18:22.169Z,98061.09
2023-04-14T10:20:54.488Z,98060.75
2023-04-14T10:23:23.890Z,98056.47
2023-04-14T10:25:53.821Z,98063.34
2023-04-14T10:28:24.009Z,98057.53
2023-04-14T10:30:55.892Z,98054.38
2023-04-14T10:33:26.934Z,98052.66
2023-04-14T10:36:02.181Z,98061.00
2023-04-14T10:38:47.421Z,98050.00
2023-04-14T10:42:12.218Z,98059.03
2023-04-14T10:48:56.886Z,98061.06
2023-04-14T10:52:39.394Z,98054.03
2023-04-14T10:55:12.394Z,98055.72
2023-04-14T10:59:03.355Z,98048.28
2023-04-14T11:02:00.429Z,98046.28
2023-04-14T11:05:05.269Z,98035.31
2023-04-14T11:08:01.597Z,98032.78
2023-04-14T11:10:48.746Z,98032.78
2023-04-14T11:13:18.216Z,98030.78
2023-04-14T11:15:58.162Z,98031.06
2023-04-14T11:18:45.310Z,98023.31
2023-04-14T11:21:18.212Z,98022.00
2023-04-14T11:23:48.179Z,98017.31
2023-04-14T11:26:44.384Z,98015.69
2023-04-14T11:29:13.417Z,98017.31
2023-04-14T11:31:49.285Z,98013.59
2023-04-14T11:34:25.768Z,98023.78
2023-04-14T11:37:05.344Z,98017.97
2023-04-14T11:40:56.843Z,98017.06
2023-04-14T11:43:49.077Z,98002.28
2023-04-14T11:46:22.249Z,98012.47
2023-04-14T11:48:57.352Z,98003.91
2023-04-14T11:51:33.896Z,98002.78
2023-04-14T11:54:03.569Z,97993.72
2023-04-14T11:56:34.884Z,97992.59
2023-04-14T11:59:06.791Z,97993.22
2023-04-14T12:01:35.985Z,97992.16
2023-04-14T12:04:17.819Z,97982.03
2023-04-14T12:07:21.118Z,97982.03
2023-04-14T12:14:35.558Z,97978.81
2023-04-14T12:18:30.614Z,97980.69
2023-04-14T12:21:34.522Z,97987.38
2023-04-14T12:24:12.869Z,97980.69
2023-04-14T12:26:46.276Z,97982.03
2023-04-14T12:29:31.300Z,97976.84
2023-04-14T12:32:02.366Z,97971.00
2023-04-14T12:34:31.912Z,97971.00
2023-04-14T12:37:12.276Z,97960.91
2023-04-14T12:39:58.316Z,97961.47
2023-04-14T12:42:43.985Z,97962.59
2023-04-14T12:45:21.915Z,97959.84
2023-04-14T12:48:45.180Z,97960.31
2023-04-14T12:51:20.645Z,97957.19
2023-04-14T12:53:53.722Z,97958.66
2023-04-14T12:58:05.098Z,97953.31
2023-04-14T13:00:34.208Z,97952.25
2023-04-14T13:03:04.001Z,97949.84
2023-04-14T13:05:33.456Z,97950.66
2023-04-14T13:08:33.484Z,97951.91
2023-04-14T13:11:12.648Z,97952.16
2023-04-14T13:13:44.603Z,97950.84
2023-04-14T13:16:20.361Z,97948.09
2023-04-14T13:18:56.700Z,97943.31
2023-04-14T13:22:16.713Z,97943.38
2023-04-14T13:24:47.653Z,97941.84
2023-04-14T13:27:20.863Z,97935.94
2023-04-14T13:29:49.942Z,97930.84
2023-04-14T13:37:32.191Z,97931.63
2023-04-14T13:40:41.658Z,97928.88
2023-04-14T13:46:41.188Z,97934.81
2023-04-14T13:50:17.365Z,97929.34
2023-04-14T13:52:36.447Z,97921.63
2023-04-14T13:55:08.216Z,97921.94
2023-04-14T13:57:38.554Z,97925.06
2023-04-14T14:00:16.606Z,97925.31
2023-04-14T14:02:46.842Z,97923.88
2023-04-14T14:05:28.572Z,97923.59
2023-04-14T14:08:38.161Z,97924.94
2023-04-14T14:11:20.365Z,97930.59
2023-04-14T14:13:53.068Z,97923.63
2023-04-14T14:23:34.096Z,97925.69
2023-04-14T14:26:42.109Z,97930.97
2023-04-14T14:29:25.083Z,97932.09
2023-04-14T14:31:56.604Z,97933.47
2023-04-14T14:34:25.779Z,97930.81
2023-04-14T14:36:59.340Z,97933.75
2023-04-14T14:40:31.465Z,97938.63
2023-04-14T14:47:20.130Z,97937.72
2023-04-14T14:49:59.984Z,97934.00
2023-04-14T14:52:34.080Z,97941.44
2023-04-14T14:55:04.686Z,97948.66
2023-04-14T14:57:34.096Z,97940.31
2023-04-14T15:00:03.766Z,97939.78
2023-04-14T15:02:35.388Z,97931.78
2023-04-14T15:05:04.839Z,97943.44
2023-04-14T15:07:35.159Z,97946.13
2023-04-14T15:10:08.552Z,97948.53
2023-04-14T15:12:37.484Z,97938.44
2023-04-14T15:15:13.434Z,97945.31
2023-04-14T15:17:46.100Z,97943.97
2023-04-14T15:20:15.738Z,97945.25
2023-04-14T15:24:08.846Z,97945.50
2023-04-14T15:26:38.095Z,97950.22
2023-04-14T15:29:09.211Z,97946.50
2023-04-14T15:31:38.939Z,97945.38
2023-04-14T15:34:38.835Z,97950.47
2023-04-14T15:37:07.784Z,97948.53
2023-04-14T15:40:01.182Z,97949.78
2023-04-14T15:42:33.764Z,97958.59
2023-04-14T15:45:03.434Z,97957.47
2023-04-14T15:47:32.364Z,97949.22
2023-04-14T15:50:09.112Z,97956.97
2023-04-14T15:52:40.147Z,97954.28
2023-04-14T15:55:11.410Z,97955.34
2023-04-14T16:02:11.465Z,97956.16
2023-04-14T16:04:40.872Z,97958.28
2023-04-14T16:07:11.342Z,97962.56
2023-04-14T16:09:40.583Z,97952.59
2023-04-14T16:12:10.097Z,97963.00
2023-04-14T16:14:38.863Z,97953.94
2023-04-14T16:17:07.739Z,97956.34
2023-04-14T16:21:13.989Z,97959.88
2023-04-14T16:25:06.441Z,97956.13
2023-04-14T16:32:26.028Z,97955.25
2023-04-14T16:34:54.927Z,97950.38
2023-04-14T16:37:26.035Z,97942.91
2023-04-14T16:40:11.679Z,97947.16
2023-04-14T16:42:40.992Z,97949.25
2023-04-14T16:45:11.047Z,97952.00
2023-04-14T16:48:07.596Z,97947.63
2023-04-14T16:50:40.343Z,97950.88
2023-04-14T16:53:12.520Z,97950.22
2023-04-14T16:57:10.904Z,97951.34
2023-04-14T16:59:40.004Z,97950.94
2023-04-14T17:03:07.606Z,97948.28
2023-04-14T17:05:36.690Z,97953.78
2023-04-14T17:08:06.040Z,97957.50
2023-04-14T17:10:34.861Z,97953.72
2023-04-14T17:13:04.187Z,97957.50
2023-04-14T17:15:39.566Z,97953.31
2023-04-14T17:18:25.251Z,97945.88
2023-04-14T17:20:57.173Z,97951.38
2023-04-14T17:23:52.516Z,97948.78
2023-04-14T17:26:21.822Z,97950.63
2023-04-14T17:29:09.706Z,97951.53
2023-04-14T17:31:46.656Z,97941.66
2023-04-14T17:34:49.001Z,97952.09
2023-04-14T17:37:37.206Z,97943.94
2023-04-14T17:40:09.041Z,97952.16
2023-04-14T17:42:38.776Z,97949.91
2023-04-14T17:46:05.167Z,97956.38
2023-04-14T17:48:41.597Z,97948.13
2023-04-14T17:51:39.820Z,97954.44
2023-04-14T17:54:09.026Z,97955.75
2023-04-14T17:56:51.063Z,97952.84
2023-04-14T17:59:33.543Z,97949.84
2023-04-14T18:02:04.054Z,97953.63
2023-04-14T18:04:48.041Z,97950.88
2023-04-14T18:08:07.751Z,97947.16
2023-04-14T18:11:16.740Z,97951.69
2023-04-14T18:14:43.561Z,97952.50
2023-04-14T18:17:26.369Z,97950.88
2023-04-14T18:20:42.683Z,97950.81
2023-04-14T18:29:45.789Z,97961.88
2023-04-14T18:34:07.134Z,97955.00
2023-04-14T18:37:07.590Z,97956.84
2023-04-14T18:40:02.535Z,97964.78
2023-04-14T18:44:28.720Z,97958.34
2023-04-14T18:58:32.803Z,97958.81
2023-04-14T19:05:05.028Z,97947.34
2023-04-14T19:08:26.258Z,97939.84
2023-04-14T19:15:06.598Z,97951.38
2023-04-14T19:18:03.225Z,97947.84
2023-04-14T19:20:34.686Z,97951.06
2023-04-14T19:23:47.926Z,97947.66
2023-04-14T19:26:41.201Z,97945.47
2023-04-14T19:29:23.207Z,97937.31
2023-04-14T19:31:59.419Z,97937.13
2023-04-14T19:34:45.008Z,97945.38
2023-04-14T19:37:35.858Z,97936.03
2023-04-14T19:40:26.909Z,97941.34
2023-04-14T19:43:02.340Z,97937.63
2023-04-14T19:46:11.454Z,97935.53
2023-04-14T19:52:32.547Z,97940.72
2023-04-14T19:55:22.356Z,97937.00
2023-04-14T19:59:06.792Z,97934.72
2023-04-14T20:01:54.067Z,97936.19
2023-04-14T20:08:29.989Z,97926.41
2023-04-14T20:12:21.623Z,97919.88
2023-04-14T20:15:08.145Z,97919.13
2023-04-14T20:22:43.416Z,97916.72
2023-04-14T20:26:14.725Z,97923.88
2023-04-14T20:29:05.555Z,97921.72
2023-04-14T20:31:47.509Z,97926.81
2023-04-14T20:34:25.151Z,97914.06
2023-04-14T20:37:04.800Z,97914.06
2023-04-14T20:42:48.437Z,97908.38
2023-04-14T20:45:22.461Z,97899.88
2023-04-14T20:47:53.999Z,97904.19
2023-04-14T20:50:44.811Z,97905.47
2023-04-14T20:53:15.261Z,97899.50
2023-04-14T20:55:45.050Z,97900.00
2023-04-14T20:58:16.306Z,97896.59
2023-04-14T21:00:45.610Z,97892.06
2023-04-14T21:03:14.530Z,97899.69
2023-04-14T21:05:43.462Z,97891.94
2023-04-14T21:08:12.837Z,97889.00
2023-04-14T21:11:16.110Z,97888.63
2023-04-14T21:15:39.889Z,97879.75
2023-04-14T21:16:26.135Z,97882.47
2023-04-14T21:18:55.199Z,97877.38
2023-04-14T21:21:23.931Z,97873.19
2023-04-14T21:23:52.855Z,97875.94
2023-04-14T21:26:22.026Z,97878.53
2023-04-14T21:28:52.204Z,97882.97
2023-04-14T21:31:21.104Z,97885.00
2023-04-14T21:33:49.808Z,97890.31
2023-04-14T21:36:19.872Z,97886.91
2023-04-14T21:38:48.765Z,97890.63
2023-04-14T21:41:17.456Z,97890.25
2023-04-14T21:43:46.077Z,97892.09
2023-04-14T21:46:16.659Z,97884.81
2023-04-14T21:48:45.769Z,97876.31
2023-04-14T21:51:14.967Z,97881.00
2023-04-14T21:53:43.685Z,97889.34
2023-04-14T21:56:13.213Z,97886.44
2023-04-14T21:58:42.036Z,97892.22
2023-04-14T22:01:11.532Z,97877.28
2023-04-14T22:03:43.066Z,97877.03
2023-04-14T22:06:12.404Z,97876.41
2023-04-14T22:08:42.141Z,97873.91
2023-04-14T22:11:11.141Z,97872.47
2023-04-14T22:13:39.910Z,97866.81
2023-04-14T22:16:11.714Z,97878.81
2023-04-14T22:18:42.183Z,97879.06
2023-04-14T22:21:14.757Z,97876.75
2023-04-14T22:23:44.755Z,97874.38
2023-04-14T22:26:14.115Z,97878.59
2023-04-14T22:28:43.201Z,97882.72
2023-04-14T22:31:11.979Z,97876.91
2023-04-14T22:33:44.435Z,97874.16
2023-04-14T22:36:14.072Z,97865.09
2023-04-14T22:38:47.569Z,97857.91
2023-04-14T22:41:16.721Z,97863.50
2023-04-14T22:43:45.477Z,97855.81
2023-04-14T22:46:14.267Z,97864.06
2023-04-14T22:48:44.481Z,97854.19
2023-04-14T22:51:13.093Z,97852.13
2023-04-14T22:53:41.833Z,97851.31
2023-04-14T22:56:10.717Z,97857.66
2023-04-14T22:58:39.956Z,97850.19
2023-04-14T23:01:21.317Z,97841.84
2023-04-14T23:03:53.692Z,97847.97
2023-04-14T23:06:23.324Z,97854.78
2023-04-14T23:08:52.923Z,97840.97
2023-04-14T23:11:22.008Z,97849.75
2023-04-14T23:13:51.550Z,97845.81
2023-04-14T23:16:21.154Z,97837.31
2023-04-14T23:18:52.537Z,97836.84
2023-04-14T23:21:23.033Z,97836.75
2023-04-14T23:23:52.526Z,97830.38
2023-04-14T23:26:22.809Z,97838.19
2023-04-14T23:28:53.076Z,97832.50
2023-04-14T23:31:21.865Z,97827.09
2023-04-14T23:33:53.018Z,97822.31
2023-04-14T23:36:21.922Z,97817.47
2023-04-14T23:38:50.642Z,97815.88
2023-04-14T23:41:20.089Z,97815.38
2023-04-14T23:43:49.629Z,97816.34
2023-04-14T23:46:18.429Z,97821.19
2023-04-14T23:48:47.450Z,97810.94
2023-04-14T23:51:22.926Z,97819.56
2023-04-14T23:53:52.118Z,97815.06
2023-04-14T23:56:21.188Z,97809.56
2023-04-14T23:58:49.829Z,97812.94
